sensor_id;sensor_type;location;lat;lon;timestamp;P1;durP1;ratioP1;P2;durP2;ratioP2
68718;SDS011;55696;52.138;5.444;2022-11-27T00:01:14;12.68;;;3.67;;
68718;SDS011;55696;52.138;5.444;2022-11-27T00:03:43;13.07;;;4.30;;
68718;SDS011;55696;52.138;5.444;2022-11-27T00:06:13;18.48;;;4.55;;
68718;SDS011;55696;52.138;5.444;2022-11-27T00:08:43;15.00;;;4.30;;
68718;SDS011;55696;52.138;5.444;2022-11-27T00:11:15;14.93;;;3.92;;
68718;SDS011;55696;52.138;5.444;2022-11-27T00:13:43;16.80;;;3.85;;
68718;SDS011;55696;52.138;5.444;2022-11-27T00:16:11;12.07;;;3.80;;
68718;SDS011;55696;52.138;5.444;2022-11-27T00:18:38;14.10;;;4.75;;
68718;SDS011;55696;52.138;5.444;2022-11-27T00:21:07;12.77;;;4.10;;
68718;SDS011;55696;52.138;5.444;2022-11-27T00:23:39;12.63;;;3.70;;
68718;SDS011;55696;52.138;5.444;2022-11-27T00:26:06;14.05;;;3.95;;
68718;SDS011;55696;52.138;5.444;2022-11-27T00:28:34;14.18;;;4.07;;
68718;SDS011;55696;52.138;5.444;2022-11-27T00:31:03;11.13;;;4.07;;
68718;SDS011;55696;52.138;5.444;2022-11-27T00:33:32;11.23;;;4.10;;
68718;SDS011;55696;52.138;5.444;2022-11-27T00:36:05;12.02;;;4.03;;
68718;SDS011;55696;52.138;5.444;2022-11-27T00:38:33;13.98;;;4.72;;
68718;SDS011;55696;52.138;5.444;2022-11-27T00:41:05;16.38;;;4.32;;
68718;SDS011;55696;52.138;5.444;2022-11-27T00:43:32;11.45;;;3.78;;
68718;SDS011;55696;52.138;5.444;2022-11-27T00:46:09;14.63;;;4.13;;
68718;SDS011;55696;52.138;5.444;2022-11-27T00:48:40;20.70;;;4.10;;
68718;SDS011;55696;52.138;5.444;2022-11-27T00:51:08;13.75;;;4.03;;
68718;SDS011;55696;52.138;5.444;2022-11-27T00:53:37;14.93;;;4.35;;
68718;SDS011;55696;52.138;5.444;2022-11-27T00:56:04;14.98;;;4.22;;
68718;SDS011;55696;52.138;5.444;2022-11-27T00:58:31;15.10;;;4.23;;
68718;SDS011;55696;52.138;5.444;2022-11-27T01:01:04;14.35;;;4.30;;
68718;SDS011;55696;52.138;5.444;2022-11-27T01:03:34;14.13;;;4.47;;
68718;SDS011;55696;52.138;5.444;2022-11-27T01:06:04;16.65;;;4.68;;
68718;SDS011;55696;52.138;5.444;2022-11-27T01:08:32;9.60;;;3.90;;
68718;SDS011;55696;52.138;5.444;2022-11-27T01:10:59;15.20;;;4.67;;
68718;SDS011;55696;52.138;5.444;2022-11-27T01:13:31;14.45;;;4.22;;
68718;SDS011;55696;52.138;5.444;2022-11-27T01:16:04;14.48;;;4.10;;
68718;SDS011;55696;52.138;5.444;2022-11-27T01:18:36;10.70;;;4.93;;
68718;SDS011;55696;52.138;5.444;2022-11-27T01:21:04;11.15;;;4.25;;
68718;SDS011;55696;52.138;5.444;2022-11-27T01:23:31;14.77;;;4.13;;
68718;SDS011;55696;52.138;5.444;2022-11-27T01:25:59;21.38;;;4.10;;
68718;SDS011;55696;52.138;5.444;2022-11-27T01:28:27;10.38;;;4.07;;
68718;SDS011;55696;52.138;5.444;2022-11-27T01:30:54;15.38;;;4.65;;
68718;SDS011;55696;52.138;5.444;2022-11-27T01:33:21;22.42;;;4.60;;
68718;SDS011;55696;52.138;5.444;2022-11-27T01:35:58;14.23;;;4.63;;
68718;SDS011;55696;52.138;5.444;2022-11-27T01:38:26;11.65;;;4.60;;
68718;SDS011;55696;52.138;5.444;2022-11-27T01:40:58;10.98;;;3.90;;
68718;SDS011;55696;52.138;5.444;2022-11-27T01:46:16;14.63;;;4.35;;
68718;SDS011;55696;52.138;5.444;2022-11-27T01:51:42;9.88;;;3.92;;
68718;SDS011;55696;52.138;5.444;2022-11-27T01:54:41;11.35;;;3.85;;
68718;SDS011;55696;52.138;5.444;2022-11-27T01:57:18;24.08;;;7.15;;
68718;SDS011;55696;52.138;5.444;2022-11-27T02:00:05;15.80;;;4.43;;
68718;SDS011;55696;52.138;5.444;2022-11-27T02:02:40;15.37;;;5.03;;
68718;SDS011;55696;52.138;5.444;2022-11-27T02:05:08;15.25;;;4.55;;
68718;SDS011;55696;52.138;5.444;2022-11-27T02:07:36;14.85;;;4.88;;
68718;SDS011;55696;52.138;5.444;2022-11-27T02:10:04;14.77;;;5.20;;
68718;SDS011;55696;52.138;5.444;2022-11-27T02:15:15;17.63;;;5.10;;
68718;SDS011;55696;52.138;5.444;2022-11-27T02:18:02;11.52;;;4.68;;
68718;SDS011;55696;52.138;5.444;2022-11-27T02:23:52;11.45;;;4.15;;
68718;SDS011;55696;52.138;5.444;2022-11-27T02:27:04;14.73;;;3.95;;
68718;SDS011;55696;52.138;5.444;2022-11-27T02:29:53;13.13;;;4.37;;
68718;SDS011;55696;52.138;5.444;2022-11-27T02:32:31;12.05;;;4.10;;
68718;SDS011;55696;52.138;5.444;2022-11-27T02:35:25;15.25;;;4.00;;
68718;SDS011;55696;52.138;5.444;2022-11-27T02:38:08;16.10;;;4.55;;
68718;SDS011;55696;52.138;5.444;2022-11-27T02:40:45;11.95;;;3.72;;
68718;SDS011;55696;52.138;5.444;2022-11-27T02:43:32;9.90;;;4.53;;
68718;SDS011;55696;52.138;5.444;2022-11-27T02:46:03;12.18;;;4.57;;
68718;SDS011;55696;52.138;5.444;2022-11-27T02:48:34;14.50;;;4.57;;
68718;SDS011;55696;52.138;5.444;2022-11-27T02:51:04;10.95;;;3.90;;
68718;SDS011;55696;52.138;5.444;2022-11-27T02:53:34;11.27;;;4.05;;
68718;SDS011;55696;52.138;5.444;2022-11-27T02:56:07;14.33;;;4.27;;
68718;SDS011;55696;52.138;5.444;2022-11-27T02:58:37;11.30;;;4.03;;
68718;SDS011;55696;52.138;5.444;2022-11-27T03:01:07;14.07;;;3.75;;
68718;SDS011;55696;52.138;5.444;2022-11-27T03:03:37;12.55;;;4.10;;
68718;SDS011;55696;52.138;5.444;2022-11-27T03:06:10;10.60;;;3.78;;
68718;SDS011;55696;52.138;5.444;2022-11-27T03:11:15;11.07;;;3.92;;
68718;SDS011;55696;52.138;5.444;2022-11-27T03:13:43;10.32;;;3.38;;
68718;SDS011;55696;52.138;5.444;2022-11-27T03:16:32;9.45;;;3.90;;
68718;SDS011;55696;52.138;5.444;2022-11-27T03:19:19;15.75;;;5.00;;
68718;SDS011;55696;52.138;5.444;2022-11-27T03:24:20;14.73;;;4.28;;
68718;SDS011;55696;52.138;5.444;2022-11-27T03:26:47;14.63;;;4.18;;
68718;SDS011;55696;52.138;5.444;2022-11-27T03:29:16;16.20;;;4.50;;
68718;SDS011;55696;52.138;5.444;2022-11-27T03:31:46;16.33;;;4.47;;
68718;SDS011;55696;52.138;5.444;2022-11-27T03:34:14;9.30;;;3.60;;
68718;SDS011;55696;52.138;5.444;2022-11-27T03:36:41;10.38;;;4.10;;
68718;SDS011;55696;52.138;5.444;2022-11-27T03:39:08;11.85;;;3.85;;
68718;SDS011;55696;52.138;5.444;2022-11-27T03:44:27;13.80;;;4.40;;
68718;SDS011;55696;52.138;5.444;2022-11-27T03:49:41;9.68;;;4.25;;
68718;SDS011;55696;52.138;5.444;2022-11-27T03:55:33;12.25;;;3.70;;
68718;SDS011;55696;52.138;5.444;2022-11-27T03:58:23;14.13;;;4.32;;
68718;SDS011;55696;52.138;5.444;2022-11-27T04:01:18;13.03;;;4.70;;
68718;SDS011;55696;52.138;5.444;2022-11-27T04:03:48;10.95;;;4.28;;
68718;SDS011;55696;52.138;5.444;2022-11-27T04:06:15;14.05;;;4.63;;
68718;SDS011;55696;52.138;5.444;2022-11-27T04:08:42;8.25;;;3.47;;
68718;SDS011;55696;52.138;5.444;2022-11-27T04:11:13;10.40;;;3.60;;
68718;SDS011;55696;52.138;5.444;2022-11-27T04:13:40;10.07;;;3.67;;
68718;SDS011;55696;52.138;5.444;2022-11-27T04:16:07;12.75;;;3.78;;
68718;SDS011;55696;52.138;5.444;2022-11-27T04:18:34;10.88;;;3.55;;
68718;SDS011;55696;52.138;5.444;2022-11-27T04:21:01;12.20;;;4.35;;
68718;SDS011;55696;52.138;5.444;2022-11-27T04:23:28;14.38;;;3.70;;
68718;SDS011;55696;52.138;5.444;2022-11-27T04:25:55;13.43;;;4.40;;
68718;SDS011;55696;52.138;5.444;2022-11-27T04:28:21;10.95;;;3.85;;
68718;SDS011;55696;52.138;5.444;2022-11-27T04:30:52;11.90;;;3.50;;
68718;SDS011;55696;52.138;5.444;2022-11-27T04:33:20;11.25;;;3.60;;
68718;SDS011;55696;52.138;5.444;2022-11-27T04:35:48;10.25;;;3.72;;
68718;SDS011;55696;52.138;5.444;2022-11-27T04:38:16;10.80;;;3.57;;
68718;SDS011;55696;52.138;5.444;2022-11-27T04:40:43;13.48;;;4.00;;
68718;SDS011;55696;52.138;5.444;2022-11-27T04:43:10;7.78;;;3.40;;
68718;SDS011;55696;52.138;5.444;2022-11-27T04:45:38;12.27;;;4.28;;
68718;SDS011;55696;52.138;5.444;2022-11-27T04:48:05;7.90;;;3.78;;
68718;SDS011;55696;52.138;5.444;2022-11-27T04:50:32;12.37;;;3.77;;
68718;SDS011;55696;52.138;5.444;2022-11-27T04:52:58;8.50;;;3.55;;
68718;SDS011;55696;52.138;5.444;2022-11-27T04:55:26;10.80;;;3.53;;
68718;SDS011;55696;52.138;5.444;2022-11-27T04:57:52;11.25;;;3.30;;
68718;SDS011;55696;52.138;5.444;2022-11-27T05:00:19;14.32;;;3.65;;
68718;SDS011;55696;52.138;5.444;2022-11-27T05:02:46;8.53;;;3.20;;
68718;SDS011;55696;52.138;5.444;2022-11-27T05:05:13;10.27;;;3.40;;
68718;SDS011;55696;52.138;5.444;2022-11-27T05:07:40;11.70;;;3.50;;
68718;SDS011;55696;52.138;5.444;2022-11-27T05:10:07;11.10;;;3.10;;
68718;SDS011;55696;52.138;5.444;2022-11-27T05:12:34;9.63;;;3.40;;
68718;SDS011;55696;52.138;5.444;2022-11-27T05:15:01;8.10;;;3.13;;
68718;SDS011;55696;52.138;5.444;2022-11-27T05:17:30;11.23;;;3.45;;
68718;SDS011;55696;52.138;5.444;2022-11-27T05:19:57;8.45;;;3.50;;
68718;SDS011;55696;52.138;5.444;2022-11-27T05:22:23;8.60;;;2.85;;
68718;SDS011;55696;52.138;5.444;2022-11-27T05:24:50;9.18;;;3.35;;
68718;SDS011;55696;52.138;5.444;2022-11-27T05:27:17;7.17;;;2.80;;
68718;SDS011;55696;52.138;5.444;2022-11-27T05:29:43;10.18;;;3.38;;
68718;SDS011;55696;52.138;5.444;2022-11-27T05:32:10;7.90;;;3.15;;
68718;SDS011;55696;52.138;5.444;2022-11-27T05:34:37;9.32;;;2.88;;
68718;SDS011;55696;52.138;5.444;2022-11-27T05:37:04;10.77;;;3.75;;
68718;SDS011;55696;52.138;5.444;2022-11-27T05:39:31;15.50;;;3.57;;
68718;SDS011;55696;52.138;5.444;2022-11-27T05:41:57;6.85;;;2.90;;
68718;SDS011;55696;52.138;5.444;2022-11-27T05:44:25;9.30;;;2.90;;
68718;SDS011;55696;52.138;5.444;2022-11-27T05:46:51;6.18;;;2.25;;
68718;SDS011;55696;52.138;5.444;2022-11-27T05:49:18;11.68;;;3.30;;
68718;SDS011;55696;52.138;5.444;2022-11-27T05:51:45;11.40;;;2.90;;
68718;SDS011;55696;52.138;5.444;2022-11-27T05:54:17;9.30;;;2.90;;
68718;SDS011;55696;52.138;5.444;2022-11-27T05:56:44;10.25;;;3.38;;
68718;SDS011;55696;52.138;5.444;2022-11-27T05:59:11;8.73;;;3.08;;
68718;SDS011;55696;52.138;5.444;2022-11-27T06:01:38;7.28;;;3.00;;
68718;SDS011;55696;52.138;5.444;2022-11-27T06:04:04;12.33;;;3.00;;
68718;SDS011;55696;52.138;5.444;2022-11-27T06:06:31;11.05;;;3.17;;
68718;SDS011;55696;52.138;5.444;2022-11-27T06:08:58;7.85;;;2.95;;
68718;SDS011;55696;52.138;5.444;2022-11-27T06:11:25;10.27;;;2.50;;
68718;SDS011;55696;52.138;5.444;2022-11-27T06:13:52;5.45;;;2.30;;
68718;SDS011;55696;52.138;5.444;2022-11-27T06:16:20;8.37;;;2.63;;
68718;SDS011;55696;52.138;5.444;2022-11-27T06:18:48;8.68;;;2.45;;
68718;SDS011;55696;52.138;5.444;2022-11-27T06:21:17;10.25;;;3.03;;
68718;SDS011;55696;52.138;5.444;2022-11-27T06:23:45;10.00;;;3.35;;
68718;SDS011;55696;52.138;5.444;2022-11-27T06:26:13;5.72;;;2.90;;
68718;SDS011;55696;52.138;5.444;2022-11-27T06:28:45;8.93;;;2.97;;
68718;SDS011;55696;52.138;5.444;2022-11-27T06:31:14;7.85;;;2.63;;
68718;SDS011;55696;52.138;5.444;2022-11-27T06:33:44;5.55;;;2.67;;
68718;SDS011;55696;52.138;5.444;2022-11-27T06:36:11;11.25;;;2.67;;
68718;SDS011;55696;52.138;5.444;2022-11-27T06:38:38;9.30;;;3.00;;
68718;SDS011;55696;52.138;5.444;2022-11-27T06:41:06;7.23;;;2.93;;
68718;SDS011;55696;52.138;5.444;2022-11-27T06:43:37;8.65;;;2.50;;
68718;SDS011;55696;52.138;5.444;2022-11-27T06:46:05;9.52;;;2.58;;
68718;SDS011;55696;52.138;5.444;2022-11-27T06:48:33;7.30;;;2.50;;
68718;SDS011;55696;52.138;5.444;2022-11-27T06:51:00;6.95;;;3.00;;
68718;SDS011;55696;52.138;5.444;2022-11-27T06:53:29;6.33;;;2.53;;
68718;SDS011;55696;52.138;5.444;2022-11-27T06:55:57;12.93;;;3.20;;
68718;SDS011;55696;52.138;5.444;2022-11-27T06:58:23;6.57;;;3.03;;
68718;SDS011;55696;52.138;5.444;2022-11-27T07:00:59;11.45;;;3.22;;
68718;SDS011;55696;52.138;5.444;2022-11-27T07:03:27;8.80;;;2.80;;
68718;SDS011;55696;52.138;5.444;2022-11-27T07:05:57;11.70;;;2.80;;
68718;SDS011;55696;52.138;5.444;2022-11-27T07:08:25;10.32;;;2.72;;
68718;SDS011;55696;52.138;5.444;2022-11-27T07:10:52;9.57;;;2.90;;
68718;SDS011;55696;52.138;5.444;2022-11-27T07:13:19;8.93;;;2.72;;
68718;SDS011;55696;52.138;5.444;2022-11-27T07:15:45;8.70;;;2.75;;
68718;SDS011;55696;52.138;5.444;2022-11-27T07:18:12;9.90;;;2.60;;
68718;SDS011;55696;52.138;5.444;2022-11-27T07:20:38;9.13;;;2.83;;
68718;SDS011;55696;52.138;5.444;2022-11-27T07:23:05;8.60;;;2.75;;
68718;SDS011;55696;52.138;5.444;2022-11-27T07:25:32;10.20;;;2.80;;
68718;SDS011;55696;52.138;5.444;2022-11-27T07:27:58;8.70;;;3.17;;
68718;SDS011;55696;52.138;5.444;2022-11-27T07:30:26;8.70;;;3.00;;
68718;SDS011;55696;52.138;5.444;2022-11-27T07:32:53;9.40;;;3.15;;
68718;SDS011;55696;52.138;5.444;2022-11-27T07:35:20;10.57;;;3.53;;
68718;SDS011;55696;52.138;5.444;2022-11-27T07:37:47;6.65;;;2.63;;
68718;SDS011;55696;52.138;5.444;2022-11-27T07:40:13;6.55;;;3.00;;
68718;SDS011;55696;52.138;5.444;2022-11-27T07:42:40;10.63;;;2.87;;
68718;SDS011;55696;52.138;5.444;2022-11-27T07:45:08;8.68;;;2.67;;
68718;SDS011;55696;52.138;5.444;2022-11-27T07:47:36;5.93;;;2.53;;
68718;SDS011;55696;52.138;5.444;2022-11-27T07:50:04;9.63;;;3.10;;
68718;SDS011;55696;52.138;5.444;2022-11-27T07:52:34;7.45;;;3.08;;
68718;SDS011;55696;52.138;5.444;2022-11-27T07:55:07;9.63;;;3.30;;
68718;SDS011;55696;52.138;5.444;2022-11-27T07:57:34;7.97;;;3.13;;
68718;SDS011;55696;52.138;5.444;2022-11-27T08:00:00;10.15;;;3.20;;
68718;SDS011;55696;52.138;5.444;2022-11-27T08:02:29;7.30;;;2.88;;
68718;SDS011;55696;52.138;5.444;2022-11-27T08:04:56;10.48;;;3.70;;
68718;SDS011;55696;52.138;5.444;2022-11-27T08:07:26;8.63;;;3.10;;
68718;SDS011;55696;52.138;5.444;2022-11-27T08:09:54;11.60;;;3.10;;
68718;SDS011;55696;52.138;5.444;2022-11-27T08:12:23;8.65;;;2.58;;
68718;SDS011;55696;52.138;5.444;2022-11-27T08:14:50;12.20;;;2.92;;
68718;SDS011;55696;52.138;5.444;2022-11-27T08:17:17;10.05;;;2.92;;
68718;SDS011;55696;52.138;5.444;2022-11-27T08:19:44;9.50;;;3.47;;
68718;SDS011;55696;52.138;5.444;2022-11-27T08:22:11;7.07;;;3.03;;
68718;SDS011;55696;52.138;5.444;2022-11-27T08:24:40;6.88;;;2.95;;
68718;SDS011;55696;52.138;5.444;2022-11-27T08:27:08;11.02;;;3.58;;
68718;SDS011;55696;52.138;5.444;2022-11-27T08:29:35;9.00;;;3.45;;
68718;SDS011;55696;52.138;5.444;2022-11-27T08:32:03;11.03;;;3.57;;
68718;SDS011;55696;52.138;5.444;2022-11-27T08:34:30;8.82;;;2.88;;
68718;SDS011;55696;52.138;5.444;2022-11-27T08:36:57;6.32;;;3.08;;
68718;SDS011;55696;52.138;5.444;2022-11-27T08:39:24;6.85;;;3.15;;
68718;SDS011;55696;52.138;5.444;2022-11-27T08:41:52;10.07;;;3.63;;
68718;SDS011;55696;52.138;5.444;2022-11-27T08:44:19;9.20;;;3.60;;
68718;SDS011;55696;52.138;5.444;2022-11-27T08:46:46;7.30;;;3.60;;
68718;SDS011;55696;52.138;5.444;2022-11-27T08:49:13;11.63;;;3.72;;
68718;SDS011;55696;52.138;5.444;2022-11-27T08:51:39;11.25;;;3.63;;
68718;SDS011;55696;52.138;5.444;2022-11-27T08:54:06;12.15;;;3.95;;
68718;SDS011;55696;52.138;5.444;2022-11-27T08:56:33;9.87;;;3.53;;
68718;SDS011;55696;52.138;5.444;2022-11-27T08:59:01;10.90;;;3.55;;
68718;SDS011;55696;52.138;5.444;2022-11-27T09:01:28;8.82;;;3.75;;
68718;SDS011;55696;52.138;5.444;2022-11-27T09:03:56;11.93;;;3.47;;
68718;SDS011;55696;52.138;5.444;2022-11-27T09:06:28;9.80;;;4.00;;
68718;SDS011;55696;52.138;5.444;2022-11-27T09:08:57;10.73;;;4.10;;
68718;SDS011;55696;52.138;5.444;2022-11-27T09:11:25;7.13;;;3.10;;
68718;SDS011;55696;52.138;5.444;2022-11-27T09:13:52;13.18;;;3.75;;
68718;SDS011;55696;52.138;5.444;2022-11-27T09:16:20;9.68;;;3.95;;
68718;SDS011;55696;52.138;5.444;2022-11-27T09:18:48;14.13;;;4.60;;
68718;SDS011;55696;52.138;5.444;2022-11-27T09:21:17;8.27;;;4.30;;
68718;SDS011;55696;52.138;5.444;2022-11-27T09:23:45;14.88;;;4.32;;
68718;SDS011;55696;52.138;5.444;2022-11-27T09:26:13;9.07;;;3.60;;
68718;SDS011;55696;52.138;5.444;2022-11-27T09:28:41;10.43;;;4.05;;
68718;SDS011;55696;52.138;5.444;2022-11-27T09:31:10;10.13;;;4.30;;
68718;SDS011;55696;52.138;5.444;2022-11-27T09:33:38;11.57;;;5.23;;
68718;SDS011;55696;52.138;5.444;2022-11-27T09:36:07;11.82;;;4.30;;
68718;SDS011;55696;52.138;5.444;2022-11-27T09:38:56;11.20;;;4.38;;
68718;SDS011;55696;52.138;5.444;2022-11-27T09:43:59;12.57;;;4.18;;
68718;SDS011;55696;52.138;5.444;2022-11-27T09:46:34;13.63;;;4.23;;
68718;SDS011;55696;52.138;5.444;2022-11-27T09:49:04;12.20;;;4.25;;
68718;SDS011;55696;52.138;5.444;2022-11-27T09:51:41;9.13;;;4.03;;
68718;SDS011;55696;52.138;5.444;2022-11-27T09:54:22;8.20;;;4.75;;
68718;SDS011;55696;52.138;5.444;2022-11-27T09:57:17;10.38;;;4.15;;
68718;SDS011;55696;52.138;5.444;2022-11-27T09:59:51;10.77;;;3.97;;
68718;SDS011;55696;52.138;5.444;2022-11-27T10:02:30;11.18;;;4.40;;
68718;SDS011;55696;52.138;5.444;2022-11-27T10:04:58;11.93;;;4.28;;
68718;SDS011;55696;52.138;5.444;2022-11-27T10:07:56;10.35;;;4.40;;
68718;SDS011;55696;52.138;5.444;2022-11-27T10:13:07;11.13;;;4.10;;
68718;SDS011;55696;52.138;5.444;2022-11-27T10:15:50;14.75;;;5.05;;
68718;SDS011;55696;52.138;5.444;2022-11-27T10:21:09;10.68;;;4.35;;
68718;SDS011;55696;52.138;5.444;2022-11-27T10:26:48;12.17;;;4.80;;
68718;SDS011;55696;52.138;5.444;2022-11-27T10:29:26;7.88;;;4.30;;
68718;SDS011;55696;52.138;5.444;2022-11-27T10:32:14;9.98;;;4.10;;
68718;SDS011;55696;52.138;5.444;2022-11-27T10:35:05;8.35;;;4.30;;
68718;SDS011;55696;52.138;5.444;2022-11-27T10:37:39;9.45;;;3.80;;
68718;SDS011;55696;52.138;5.444;2022-11-27T10:42:47;9.35;;;4.47;;
68718;SDS011;55696;52.138;5.444;2022-11-27T10:45:45;11.45;;;4.55;;
68718;SDS011;55696;52.138;5.444;2022-11-27T10:48:16;10.27;;;4.30;;
68718;SDS011;55696;52.138;5.444;2022-11-27T10:50:43;11.43;;;5.38;;
68718;SDS011;55696;52.138;5.444;2022-11-27T10:53:14;11.00;;;4.30;;
68718;SDS011;55696;52.138;5.444;2022-11-27T11:01:01;7.68;;;4.03;;
68718;SDS011;55696;52.138;5.444;2022-11-27T11:03:35;9.43;;;5.18;;
68718;SDS011;55696;52.138;5.444;2022-11-27T11:06:03;10.90;;;4.87;;
68718;SDS011;55696;52.138;5.444;2022-11-27T11:08:59;10.63;;;4.95;;
68718;SDS011;55696;52.138;5.444;2022-11-27T11:11:31;10.45;;;4.28;;
68718;SDS011;55696;52.138;5.444;2022-11-27T11:13:58;9.80;;;4.40;;
68718;SDS011;55696;52.138;5.444;2022-11-27T11:16:25;11.02;;;4.07;;
68718;SDS011;55696;52.138;5.444;2022-11-27T11:19:00;13.37;;;4.60;;
68718;SDS011;55696;52.138;5.444;2022-11-27T11:21:28;11.73;;;5.05;;
68718;SDS011;55696;52.138;5.444;2022-11-27T11:24:02;11.13;;;4.60;;
68718;SDS011;55696;52.138;5.444;2022-11-27T11:26:37;9.43;;;4.53;;
68718;SDS011;55696;52.138;5.444;2022-11-27T11:31:50;7.13;;;3.83;;
68718;SDS011;55696;52.138;5.444;2022-11-27T11:34:20;10.85;;;4.72;;
68718;SDS011;55696;52.138;5.444;2022-11-27T11:39:26;8.77;;;4.60;;
68718;SDS011;55696;52.138;5.444;2022-11-27T11:41:55;13.27;;;4.82;;
68718;SDS011;55696;52.138;5.444;2022-11-27T11:44:24;10.03;;;4.60;;
68718;SDS011;55696;52.138;5.444;2022-11-27T11:47:05;8.80;;;4.25;;
68718;SDS011;55696;52.138;5.444;2022-11-27T11:49:45;11.65;;;4.70;;
68718;SDS011;55696;52.138;5.444;2022-11-27T11:52:18;10.93;;;4.28;;
68718;SDS011;55696;52.138;5.444;2022-11-27T11:55:20;10.98;;;4.85;;
68718;SDS011;55696;52.138;5.444;2022-11-27T12:00:56;10.55;;;4.60;;
68718;SDS011;55696;52.138;5.444;2022-11-27T12:07:09;13.18;;;4.75;;
68718;SDS011;55696;52.138;5.444;2022-11-27T12:12:07;11.20;;;5.00;;
68718;SDS011;55696;52.138;5.444;2022-11-27T12:14:45;9.70;;;4.80;;
68718;SDS011;55696;52.138;5.444;2022-11-27T12:17:31;8.23;;;4.70;;
68718;SDS011;55696;52.138;5.444;2022-11-27T12:20:21;14.70;;;5.25;;
68718;SDS011;55696;52.138;5.444;2022-11-27T12:26:09;9.57;;;4.70;;
68718;SDS011;55696;52.138;5.444;2022-11-27T12:40:39;11.20;;;5.13;;
68718;SDS011;55696;52.138;5.444;2022-11-27T12:43:28;18.13;;;5.82;;
68718;SDS011;55696;52.138;5.444;2022-11-27T12:46:01;10.32;;;4.88;;
68718;SDS011;55696;52.138;5.444;2022-11-27T12:48:38;9.93;;;4.85;;
68718;SDS011;55696;52.138;5.444;2022-11-27T12:51:14;11.02;;;5.47;;
68718;SDS011;55696;52.138;5.444;2022-11-27T12:56:29;12.93;;;5.30;;
68718;SDS011;55696;52.138;5.444;2022-11-27T13:02:00;9.60;;;4.25;;
68718;SDS011;55696;52.138;5.444;2022-11-27T13:04:32;8.75;;;4.72;;
68718;SDS011;55696;52.138;5.444;2022-11-27T13:07:20;10.10;;;4.97;;
68718;SDS011;55696;52.138;5.444;2022-11-27T13:09:59;9.73;;;5.13;;
68718;SDS011;55696;52.138;5.444;2022-11-27T13:12:31;12.10;;;5.68;;
68718;SDS011;55696;52.138;5.444;2022-11-27T13:15:07;11.35;;;5.55;;
68718;SDS011;55696;52.138;5.444;2022-11-27T13:18:22;10.20;;;4.72;;
68718;SDS011;55696;52.138;5.444;2022-11-27T13:21:01;14.43;;;5.27;;
68718;SDS011;55696;52.138;5.444;2022-11-27T13:23:31;13.70;;;5.15;;
68718;SDS011;55696;52.138;5.444;2022-11-27T13:25:59;11.52;;;5.13;;
68718;SDS011;55696;52.138;5.444;2022-11-27T13:28:33;10.98;;;4.88;;
68718;SDS011;55696;52.138;5.444;2022-11-27T13:31:18;9.02;;;4.35;;
68718;SDS011;55696;52.138;5.444;2022-11-27T13:33:58;10.70;;;5.77;;
68718;SDS011;55696;52.138;5.444;2022-11-27T13:36:29;10.85;;;4.60;;
68718;SDS011;55696;52.138;5.444;2022-11-27T13:39:02;10.55;;;4.50;;
68718;SDS011;55696;52.138;5.444;2022-11-27T13:41:34;10.50;;;5.35;;
68718;SDS011;55696;52.138;5.444;2022-11-27T13:44:21;10.45;;;4.53;;
68718;SDS011;55696;52.138;5.444;2022-11-27T13:46:51;10.30;;;4.60;;
68718;SDS011;55696;52.138;5.444;2022-11-27T13:49:25;10.43;;;5.40;;
68718;SDS011;55696;52.138;5.444;2022-11-27T13:52:47;11.02;;;4.45;;
68718;SDS011;55696;52.138;5.444;2022-11-27T13:54:56;10.02;;;4.60;;
68718;SDS011;55696;52.138;5.444;2022-11-27T13:57:30;11.73;;;5.30;;
68718;SDS011;55696;52.138;5.444;2022-11-27T14:00:06;10.57;;;5.33;;
68718;SDS011;55696;52.138;5.444;2022-11-27T14:02:42;13.40;;;5.70;;
68718;SDS011;55696;52.138;5.444;2022-11-27T14:05:14;14.65;;;5.35;;
68718;SDS011;55696;52.138;5.444;2022-11-27T14:07:46;9.25;;;4.72;;
68718;SDS011;55696;52.138;5.444;2022-11-27T14:10:20;9.55;;;4.80;;
68718;SDS011;55696;52.138;5.444;2022-11-27T14:12:59;8.60;;;4.63;;
68718;SDS011;55696;52.138;5.444;2022-11-27T14:15:34;9.30;;;4.90;;
68718;SDS011;55696;52.138;5.444;2022-11-27T14:20:37;9.73;;;5.30;;
68718;SDS011;55696;52.138;5.444;2022-11-27T14:23:27;8.45;;;4.93;;
68718;SDS011;55696;52.138;5.444;2022-11-27T14:28:41;10.18;;;6.07;;
68718;SDS011;55696;52.138;5.444;2022-11-27T14:33:57;13.68;;;5.70;;
68718;SDS011;55696;52.138;5.444;2022-11-27T14:36:41;12.10;;;5.80;;
68718;SDS011;55696;52.138;5.444;2022-11-27T14:39:18;12.80;;;5.67;;
68718;SDS011;55696;52.138;5.444;2022-11-27T14:41:54;14.10;;;5.60;;
68718;SDS011;55696;52.138;5.444;2022-11-27T14:44:25;10.27;;;5.28;;
68718;SDS011;55696;52.138;5.444;2022-11-27T14:46:51;11.00;;;5.40;;
68718;SDS011;55696;52.138;5.444;2022-11-27T14:49:20;10.23;;;5.57;;
68718;SDS011;55696;52.138;5.444;2022-11-27T14:51:50;15.70;;;5.90;;
68718;SDS011;55696;52.138;5.444;2022-11-27T14:54:19;10.75;;;5.45;;
68718;SDS011;55696;52.138;5.444;2022-11-27T14:56:52;9.82;;;5.38;;
68718;SDS011;55696;52.138;5.444;2022-11-27T14:59:20;10.55;;;5.93;;
68718;SDS011;55696;52.138;5.444;2022-11-27T15:04:37;12.40;;;5.60;;
68718;SDS011;55696;52.138;5.444;2022-11-27T15:07:13;13.10;;;6.30;;
68718;SDS011;55696;52.138;5.444;2022-11-27T15:09:46;10.57;;;5.93;;
68718;SDS011;55696;52.138;5.444;2022-11-27T15:12:16;11.50;;;6.05;;
68718;SDS011;55696;52.138;5.444;2022-11-27T15:15:06;12.68;;;6.22;;
68718;SDS011;55696;52.138;5.444;2022-11-27T15:17:36;13.23;;;6.10;;
68718;SDS011;55696;52.138;5.444;2022-11-27T15:20:12;11.85;;;6.53;;
68718;SDS011;55696;52.138;5.444;2022-11-27T15:22:49;12.10;;;5.63;;
68718;SDS011;55696;52.138;5.444;2022-11-27T15:28:41;14.13;;;5.88;;
68718;SDS011;55696;52.138;5.444;2022-11-27T15:31:22;11.50;;;5.80;;
68718;SDS011;55696;52.138;5.444;2022-11-27T15:36:46;8.88;;;5.45;;
68718;SDS011;55696;52.138;5.444;2022-11-27T15:39:23;13.02;;;5.30;;
68718;SDS011;55696;52.138;5.444;2022-11-27T15:41:55;12.55;;;6.05;;
68718;SDS011;55696;52.138;5.444;2022-11-27T15:44:28;11.20;;;5.30;;
68718;SDS011;55696;52.138;5.444;2022-11-27T15:46:57;10.48;;;5.10;;
68718;SDS011;55696;52.138;5.444;2022-11-27T15:49:26;8.57;;;5.28;;
68718;SDS011;55696;52.138;5.444;2022-11-27T15:51:54;10.65;;;4.60;;
68718;SDS011;55696;52.138;5.444;2022-11-27T15:54:21;12.38;;;5.63;;
68718;SDS011;55696;52.138;5.444;2022-11-27T15:56:49;10.40;;;5.40;;
68718;SDS011;55696;52.138;5.444;2022-11-27T15:59:16;10.55;;;4.97;;
68718;SDS011;55696;52.138;5.444;2022-11-27T16:01:45;9.38;;;5.28;;
68718;SDS011;55696;52.138;5.444;2022-11-27T16:04:12;12.98;;;5.20;;
68718;SDS011;55696;52.138;5.444;2022-11-27T16:06:39;11.02;;;4.65;;
68718;SDS011;55696;52.138;5.444;2022-11-27T16:09:06;8.63;;;4.67;;
68718;SDS011;55696;52.138;5.444;2022-11-27T16:11:33;9.82;;;4.82;;
68718;SDS011;55696;52.138;5.444;2022-11-27T16:14:00;11.43;;;5.15;;
68718;SDS011;55696;52.138;5.444;2022-11-27T16:16:26;12.45;;;5.35;;
68718;SDS011;55696;52.138;5.444;2022-11-27T16:18:57;11.45;;;4.85;;
68718;SDS011;55696;52.138;5.444;2022-11-27T16:21:26;9.53;;;5.50;;
68718;SDS011;55696;52.138;5.444;2022-11-27T16:23:56;11.20;;;5.05;;
68718;SDS011;55696;52.138;5.444;2022-11-27T16:26:24;9.25;;;5.10;;
68718;SDS011;55696;52.138;5.444;2022-11-27T16:28:51;11.27;;;5.43;;
68718;SDS011;55696;52.138;5.444;2022-11-27T16:31:18;9.75;;;4.90;;
68718;SDS011;55696;52.138;5.444;2022-11-27T16:33:46;12.53;;;5.33;;
68718;SDS011;55696;52.138;5.444;2022-11-27T16:36:14;9.25;;;4.68;;
68718;SDS011;55696;52.138;5.444;2022-11-27T16:38:43;9.68;;;4.78;;
68718;SDS011;55696;52.138;5.444;2022-11-27T16:41:12;9.63;;;5.18;;